Time;durP1;ratioP1;P1;durP2;ratioP2;P2;SDS_P1;SDS_P2;PMS_P1;PMS_P2;Temp;Humidity;BMP_temperature;BMP_pressure;BME280_temperature;BME280_humidity;BME280_pressure;Samples;Min_cycle;Max_cycle;Signal;HPM_P1;HPM_P2
2023/07/13 00:01:49;;;;;;;7.38;2.00;;;19.10;60.60;;;;;;5039362;28;20032;-70
2023/07/13 00:04:17;;;;;;;6.43;1.80;;;19.10;60.90;;;;;;5056289;28;20098;-71
2023/07/13 00:06:44;;;;;;;10.43;2.80;;;19.10;61.30;;;;;;5040758;28;20037;-71
2023/07/13 00:09:15;;;;;;;7.47;2.50;;;19.10;61.60;;;;;;5057264;28;20041;-71
2023/07/13 00:11:41;;;;;;;9.80;2.30;;;19.10;61.90;;;;;;5056918;28;20040;-70
2023/07/13 00:14:07;;;;;;;5.85;2.10;;;19.10;62.30;;;;;;5056720;28;20044;-70
2023/07/13 00:16:35;;;;;;;6.85;2.15;;;19.10;62.40;;;;;;5057044;28;20401;-70
2023/07/13 00:19:05;;;;;;;5.63;1.73;;;19.10;62.70;;;;;;5040444;28;20043;-70
2023/07/13 00:21:30;;;;;;;10.32;2.53;;;19.10;62.40;;;;;;5056551;28;20575;-70
2023/07/13 00:23:56;;;;;;;14.98;3.63;;;19.10;63.10;;;;;;5074584;28;20107;-70
2023/07/13 00:26:22;;;;;;;9.75;2.85;;;19.20;63.70;;;;;;5039644;28;20049;-70
2023/07/13 00:28:47;;;;;;;11.82;3.22;;;19.10;63.70;;;;;;5023555;28;20195;-70
2023/07/13 00:31:14;;;;;;;9.45;2.72;;;19.20;64.20;;;;;;5056336;28;20075;-71
2023/07/13 00:33:41;;;;;;;9.10;3.30;;;19.10;64.20;;;;;;5056493;28;20479;-70
2023/07/13 00:36:08;;;;;;;6.60;1.83;;;19.10;64.60;;;;;;5056108;28;20152;-71
2023/07/13 00:38:34;;;;;;;8.27;2.30;;;19.20;64.40;;;;;;5056199;28;20051;-71
2023/07/13 00:41:00;;;;;;;10.23;2.78;;;19.10;63.90;;;;;;5040072;28;20464;-71
2023/07/13 00:43:28;;;;;;;8.35;3.03;;;19.10;64.80;;;;;;5039676;28;20471;-71
2023/07/13 00:45:53;;;;;;;7.63;2.85;;;19.10;64.90;;;;;;5056111;28;20093;-71
2023/07/13 00:48:22;;;;;;;9.45;2.47;;;19.10;65.10;;;;;;5056591;28;20123;-71
2023/07/13 00:50:51;;;;;;;11.38;2.80;;;19.10;64.80;;;;;;5052857;28;20037;-69
2023/07/13 00:53:19;;;;;;;9.20;2.78;;;19.10;65.00;;;;;;5056384;28;20052;-69
2023/07/13 00:55:45;;;;;;;8.93;2.65;;;19.10;65.30;;;;;;5055951;28;20464;-69
2023/07/13 00:58:11;;;;;;;10.27;2.70;;;19.10;65.40;;;;;;5072652;28;20048;-69
2023/07/13 01:00:38;;;;;;;7.03;2.38;;;19.10;65.40;;;;;;5055690;28;20036;-69
2023/07/13 01:03:04;;;;;;;5.85;2.13;;;19.10;65.20;;;;;;5055974;28;20419;-69
2023/07/13 01:05:33;;;;;;;9.43;2.63;;;19.10;64.70;;;;;;5055704;28;20040;-69
2023/07/13 01:08:00;;;;;;;9.27;2.45;;;19.20;64.50;;;;;;5055803;28;20689;-69
2023/07/13 01:10:26;;;;;;;6.85;2.15;;;19.10;64.60;;;;;;5055717;28;20076;-69
2023/07/13 01:12:53;;;;;;;7.97;2.13;;;19.10;64.50;;;;;;5055224;28;20040;-70
2023/07/13 01:15:41;;;;;;;8.45;2.47;;;19.10;64.30;;;;;;5055344;28;20048;-70
2023/07/13 01:18:09;;;;;;;7.20;2.20;;;19.10;64.10;;;;;;5055412;28;20123;-70
2023/07/13 01:20:36;;;;;;;5.20;1.77;;;19.10;63.90;;;;;;5055316;28;20032;-69
2023/07/13 01:23:12;;;;;;;8.90;2.20;;;19.20;63.70;;;;;;5055918;28;20376;-69
2023/07/13 01:25:39;;;;;;;4.35;1.60;;;19.10;63.30;;;;;;5054311;28;20067;-69
2023/07/13 01:28:08;;;;;;;6.93;2.00;;;19.10;63.20;;;;;;5038899;28;20083;-70
2023/07/13 01:30:35;;;;;;;9.10;2.45;;;19.10;63.60;;;;;;5055377;28;20047;-70
2023/07/13 01:33:01;;;;;;;6.70;1.83;;;19.10;63.70;;;;;;5073006;28;20037;-70
2023/07/13 01:35:27;;;;;;;7.20;2.00;;;19.10;63.60;;;;;;5054951;28;20079;-70
2023/07/13 01:37:53;;;;;;;4.68;1.67;;;19.10;63.30;;;;;;5053403;28;20075;-70
2023/07/13 01:40:20;;;;;;;5.93;1.92;;;19.10;63.10;;;;;;5055457;28;20044;-70
2023/07/13 01:42:46;;;;;;;5.95;1.98;;;19.10;63.00;;;;;;5054636;28;20123;-70
2023/07/13 01:45:12;;;;;;;7.45;2.10;;;19.10;63.10;;;;;;5055035;28;20127;-70
2023/07/13 01:47:37;;;;;;;8.13;2.47;;;19.10;63.20;;;;;;5055126;28;20119;-69
2023/07/13 01:50:03;;;;;;;6.53;2.22;;;19.10;63.10;;;;;;5055151;28;20039;-70
2023/07/13 01:52:29;;;;;;;7.30;1.80;;;19.10;63.20;;;;;;5055247;28;20043;-70
2023/07/13 01:54:55;;;;;;;6.32;2.00;;;19.10;63.20;;;;;;5054452;28;20047;-69
2023/07/13 01:57:20;;;;;;;8.70;2.33;;;19.10;63.40;;;;;;5022034;28;20051;-69
2023/07/13 01:59:46;;;;;;;6.90;2.03;;;19.10;63.80;;;;;;5054938;28;20572;-70
2023/07/13 02:02:12;;;;;;;7.28;1.90;;;19.10;63.50;;;;;;5038226;28;20086;-70
2023/07/13 02:04:37;;;;;;;5.65;1.70;;;19.10;63.80;;;;;;5037919;28;20036;-70
2023/07/13 02:07:03;;;;;;;6.90;2.00;;;19.00;63.80;;;;;;5054780;28;20040;-70
2023/07/13 02:09:29;;;;;;;5.00;1.63;;;19.00;63.90;;;;;;5055156;28;20059;-70
2023/07/13 02:11:55;;;;;;;8.07;2.53;;;19.00;63.80;;;;;;5037969;28;20083;-70
2023/07/13 02:14:21;;;;;;;9.07;2.28;;;19.00;64.10;;;;;;5038008;28;20063;-70
2023/07/13 02:16:49;;;;;;;6.72;2.05;;;19.00;64.80;;;;;;5038829;28;20047;-71
2023/07/13 02:19:15;;;;;;;8.93;2.50;;;18.90;64.90;;;;;;5054073;28;20052;-71
2023/07/13 02:21:40;;;;;;;6.90;2.08;;;18.90;64.80;;;;;;5055070;28;20036;-71
2023/07/13 02:24:06;;;;;;;6.22;2.35;;;18.90;64.90;;;;;;5054543;28;20042;-71
2023/07/13 02:26:32;;;;;;;9.07;2.05;;;18.80;65.00;;;;;;5035896;28;20426;-71
2023/07/13 02:28:58;;;;;;;6.07;2.33;;;18.80;65.20;;;;;;5054406;28;20407;-71
2023/07/13 02:31:23;;;;;;;9.82;2.42;;;18.70;65.30;;;;;;5053592;28;20059;-71
2023/07/13 02:33:49;;;;;;;9.18;2.80;;;18.70;65.20;;;;;;5054625;28;20032;-71
2023/07/13 02:36:16;;;;;;;10.32;2.75;;;18.70;65.60;;;;;;5053862;28;20101;-71
2023/07/13 02:38:42;;;;;;;11.77;3.78;;;18.60;65.90;;;;;;5046333;28;20046;-71
2023/07/13 02:41:09;;;;;;;7.72;1.98;;;18.60;66.30;;;;;;5037985;28;20037;-71
2023/07/13 02:43:35;;;;;;;13.38;3.90;;;18.50;66.20;;;;;;5054156;28;20044;-71
2023/07/13 02:46:06;;;;;;;11.25;3.38;;;18.50;66.50;;;;;;5054134;28;20044;-71
2023/07/13 02:48:33;;;;;;;10.38;2.85;;;18.40;66.60;;;;;;5054190;28;20392;-71
2023/07/13 02:50:59;;;;;;;10.00;3.33;;;18.40;66.80;;;;;;5054015;28;20047;-71
2023/07/13 02:53:25;;;;;;;7.65;3.05;;;18.30;66.90;;;;;;5054548;28;20048;-71
2023/07/13 02:55:51;;;;;;;8.27;2.70;;;18.30;67.10;;;;;;5054033;28;20052;-71
2023/07/13 02:58:17;;;;;;;8.93;2.38;;;18.20;67.40;;;;;;5054220;28;20048;-71
2023/07/13 03:00:47;;;;;;;8.70;2.85;;;18.20;67.50;;;;;;5054279;28;20036;-71
2023/07/13 03:03:16;;;;;;;9.70;2.58;;;18.20;67.80;;;;;;5054501;28;20036;-71
2023/07/13 03:05:44;;;;;;;4.80;2.10;;;18.20;67.90;;;;;;5053846;28;20041;-71
2023/07/13 03:08:11;;;;;;;9.95;3.53;;;18.10;67.70;;;;;;5045730;28;20533;-71
2023/07/13 03:10:39;;;;;;;9.07;2.72;;;18.10;67.90;;;;;;5037415;28;20163;-71
2023/07/13 03:13:05;;;;;;;6.85;2.38;;;18.10;68.10;;;;;;5053850;28;20123;-71
2023/07/13 03:15:31;;;;;;;10.95;3.15;;;18.10;68.30;;;;;;5071864;28;20128;-70
2023/07/13 03:17:56;;;;;;;11.50;3.00;;;18.00;68.60;;;;;;5054158;28;20044;-70
2023/07/13 03:20:22;;;;;;;7.03;3.00;;;18.10;69.10;;;;;;5053511;28;20513;-70
2023/07/13 03:22:48;;;;;;;9.15;2.38;;;18.00;69.30;;;;;;5072105;28;20041;-70
2023/07/13 03:25:14;;;;;;;8.68;2.75;;;18.00;69.50;;;;;;5053347;28;20087;-70
2023/07/13 03:27:40;;;;;;;7.25;2.67;;;18.00;69.90;;;;;;5071895;28;20036;-70
2023/07/13 03:30:06;;;;;;;10.32;2.97;;;18.00;69.90;;;;;;5037642;28;20115;-69
2023/07/13 03:32:32;;;;;;;7.97;2.47;;;18.00;69.80;;;;;;5036978;28;20040;-69
2023/07/13 03:34:58;;;;;;;8.70;2.55;;;18.00;69.70;;;;;;5036973;28;20028;-69
2023/07/13 03:37:24;;;;;;;7.43;2.38;;;18.00;69.80;;;;;;5056221;28;20043;-69
2023/07/13 03:39:50;;;;;;;9.93;3.00;;;18.00;70.00;;;;;;5057532;28;20032;-69
2023/07/13 03:42:15;;;;;;;6.47;2.90;;;18.10;70.40;;;;;;5040713;28;20047;-69
2023/07/13 03:44:45;;;;;;;6.43;2.08;;;18.10;70.10;;;;;;5057436;28;20480;-69
2023/07/13 03:47:12;;;;;;;11.75;2.92;;;18.10;70.10;;;;;;5040353;28;20055;-69
2023/07/13 03:49:37;;;;;;;11.23;3.25;;;18.10;70.50;;;;;;5057298;28;20045;-69
2023/07/13 03:52:04;;;;;;;7.15;2.50;;;18.10;70.60;;;;;;5057190;28;20059;-69
2023/07/13 03:54:29;;;;;;;9.23;3.05;;;18.10;70.50;;;;;;5057284;28;20044;-69
2023/07/13 03:56:55;;;;;;;9.05;3.15;;;18.10;70.50;;;;;;5056775;28;20056;-69
2023/07/13 03:59:21;;;;;;;8.57;3.03;;;18.00;70.50;;;;;;5056926;28;20040;-69
2023/07/13 04:01:47;;;;;;;9.10;2.90;;;18.10;70.60;;;;;;5057011;28;20044;-69
2023/07/13 04:04:13;;;;;;;9.02;2.92;;;18.00;70.50;;;;;;5074915;28;20492;-69
2023/07/13 04:06:38;;;;;;;7.93;2.75;;;18.00;70.60;;;;;;5057375;28;20082;-69
2023/07/13 04:09:08;;;;;;;8.70;2.90;;;18.00;70.80;;;;;;5039574;28;20064;-69
2023/07/13 04:11:36;;;;;;;7.80;3.42;;;18.00;70.80;;;;;;5056822;28;20040;-69
2023/07/13 04:14:02;;;;;;;7.35;2.13;;;18.00;70.70;;;;;;5056501;28;20094;-69
2023/07/13 04:16:28;;;;;;;6.05;2.55;;;18.00;70.80;;;;;;5056887;28;20115;-69
2023/07/13 04:18:59;;;;;;;7.45;2.53;;;18.00;70.80;;;;;;5056272;28;20048;-69
2023/07/13 04:21:25;;;;;;;9.02;2.50;;;18.00;70.80;;;;;;5056849;28;20037;-69
2023/07/13 04:23:51;;;;;;;8.95;2.90;;;18.00;70.90;;;;;;5056739;28;20052;-69
2023/07/13 04:26:17;;;;;;;9.25;2.67;;;18.00;70.80;;;;;;5053127;28;20079;-69
2023/07/13 04:28:43;;;;;;;6.20;2.35;;;18.00;70.90;;;;;;5053070;28;20041;-69
2023/07/13 04:31:08;;;;;;;6.45;2.63;;;17.90;70.90;;;;;;5053204;28;20033;-69
2023/07/13 04:33:34;;;;;;;8.82;2.55;;;17.90;71.10;;;;;;5028086;28;20120;-69
2023/07/13 04:36:01;;;;;;;6.80;2.65;;;18.00;71.20;;;;;;5052938;28;20044;-69
2023/07/13 04:38:29;;;;;;;6.35;2.22;;;17.90;71.10;;;;;;5053152;28;20076;-69
2023/07/13 04:40:57;;;;;;;7.93;2.45;;;18.00;71.10;;;;;;5052810;28;20075;-69
2023/07/13 04:43:24;;;;;;;7.57;2.20;;;18.00;71.20;;;;;;5052983;28;20098;-69
2023/07/13 04:45:51;;;;;;;5.18;2.40;;;18.00;71.30;;;;;;5052705;28;20040;-69
2023/07/13 04:48:17;;;;;;;6.93;2.30;;;18.00;71.40;;;;;;5053755;28;20123;-69
2023/07/13 04:50:43;;;;;;;8.38;3.13;;;18.00;71.30;;;;;;5052681;28;20128;-69
2023/07/13 04:53:10;;;;;;;10.13;3.22;;;18.10;71.60;;;;;;5053046;28;20041;-69
2023/07/13 04:55:37;;;;;;;9.55;2.70;;;18.00;71.80;;;;;;5052557;28;20052;-69
2023/07/13 04:58:03;;;;;;;6.85;2.70;;;18.10;71.80;;;;;;5033786;28;20083;-70
2023/07/13 05:00:29;;;;;;;7.68;2.50;;;18.10;72.10;;;;;;5051425;28;20044;-70
2023/07/13 05:02:57;;;;;;;8.70;2.95;;;18.20;72.00;;;;;;5052108;28;20041;-70
2023/07/13 05:05:24;;;;;;;7.80;2.80;;;18.10;72.00;;;;;;5052446;28;20033;-70
2023/07/13 05:07:50;;;;;;;9.93;3.22;;;18.20;72.30;;;;;;5052296;28;20041;-70
2023/07/13 05:10:16;;;;;;;11.60;3.20;;;18.20;72.60;;;;;;5052748;28;20122;-70
2023/07/13 05:12:42;;;;;;;12.32;3.47;;;18.20;72.90;;;;;;5052787;28;20049;-70
2023/07/13 05:15:09;;;;;;;9.82;3.00;;;18.30;73.50;;;;;;5052381;28;20396;-70
2023/07/13 05:17:35;;;;;;;11.85;2.85;;;18.30;74.00;;;;;;5052185;28;20488;-70
2023/07/13 05:20:01;;;;;;;8.60;2.47;;;18.40;74.30;;;;;;5052315;28;20091;-70
2023/07/13 05:22:26;;;;;;;11.38;3.63;;;18.60;74.50;;;;;;5052661;28;20045;-70
2023/07/13 05:24:52;;;;;;;10.65;3.17;;;18.80;74.30;;;;;;5052565;28;20464;-70
2023/07/13 05:27:18;;;;;;;10.63;3.83;;;19.10;73.80;;;;;;5055586;28;20044;-70
2023/07/13 05:29:44;;;;;;;8.98;3.63;;;19.40;73.20;;;;;;5038916;28;20498;-70
2023/07/13 05:32:10;;;;;;;7.15;2.40;;;19.80;72.40;;;;;;5055024;28;20040;-70
2023/07/13 05:34:35;;;;;;;8.40;3.13;;;20.10;71.90;;;;;;5055140;28;20102;-70
2023/07/13 05:37:01;;;;;;;10.43;3.28;;;20.50;70.40;;;;;;5055505;28;20033;-70
2023/07/13 05:39:27;;;;;;;7.88;2.42;;;20.90;69.80;;;;;;5054936;28;20045;-70
2023/07/13 05:41:53;;;;;;;9.85;3.08;;;21.30;68.60;;;;;;5055490;28;20039;-68
2023/07/13 05:44:19;;;;;;;12.57;3.35;;;21.80;67.00;;;;;;5055211;28;20044;-69
2023/07/13 05:46:45;;;;;;;8.05;2.38;;;22.20;66.00;;;;;;5055049;28;20036;-69
2023/07/13 05:49:11;;;;;;;9.23;2.42;;;22.60;65.10;;;;;;5054966;28;20087;-69
2023/07/13 05:51:36;;;;;;;7.57;2.60;;;22.90;63.20;;;;;;5038573;28;20076;-69
2023/07/13 05:54:03;;;;;;;7.25;2.35;;;23.30;61.80;;;;;;5055003;28;20089;-69
2023/07/13 05:56:28;;;;;;;8.18;2.22;;;23.70;59.80;;;;;;5055039;28;20081;-69
2023/07/13 05:58:56;;;;;;;5.35;2.03;;;24.10;59.50;;;;;;5054586;28;20163;-69
2023/07/13 06:01:23;;;;;;;7.40;2.45;;;24.40;58.30;;;;;;5047338;28;20062;-69
2023/07/13 06:03:49;;;;;;;5.40;2.03;;;24.60;57.10;;;;;;5053298;28;20040;-68
2023/07/13 06:06:16;;;;;;;7.75;2.60;;;24.90;56.70;;;;;;5038329;28;20032;-69
2023/07/13 06:08:41;;;;;;;7.15;2.28;;;25.20;56.30;;;;;;5038273;28;20088;-69
2023/07/13 06:11:19;;;;;;;6.82;1.90;;;25.60;55.60;;;;;;5038070;28;20129;-69
2023/07/13 06:13:45;;;;;;;6.70;2.30;;;25.90;54.80;;;;;;5054500;28;20044;-69
2023/07/13 06:16:11;;;;;;;8.45;2.15;;;26.20;54.00;;;;;;5038075;28;20503;-69
2023/07/13 06:18:38;;;;;;;6.85;1.98;;;26.40;52.80;;;;;;5072400;28;20032;-69
2023/07/13 06:21:12;;;;;;;7.90;2.03;;;26.70;52.40;;;;;;5054589;28;20147;-69
2023/07/13 06:23:38;;;;;;;5.97;2.17;;;26.90;51.60;;;;;;5054916;28;20388;-69
2023/07/13 06:26:05;;;;;;;7.80;2.45;;;27.10;51.10;;;;;;5054428;28;20055;-69
2023/07/13 06:28:31;;;;;;;7.60;2.20;;;27.40;50.40;;;;;;5054544;28;20123;-69
2023/07/13 06:30:58;;;;;;;9.55;2.38;;;27.70;49.60;;;;;;5054410;28;20492;-69
2023/07/13 06:33:25;;;;;;;6.07;1.70;;;27.80;48.80;;;;;;5054187;28;20547;-70
2023/07/13 06:35:51;;;;;;;8.23;2.53;;;27.80;48.40;;;;;;5054488;28;20102;-70
2023/07/13 06:38:17;;;;;;;8.30;2.83;;;27.80;48.50;;;;;;5054453;28;20389;-69
2023/07/13 06:40:43;;;;;;;6.90;1.83;;;27.60;48.40;;;;;;5053787;28;20111;-69
2023/07/13 06:43:08;;;;;;;7.55;2.03;;;27.50;48.30;;;;;;5054623;28;20131;-69
2023/07/13 06:45:45;;;;;;;11.25;2.50;;;27.30;48.50;;;;;;5054314;28;20384;-69
2023/07/13 06:48:11;;;;;;;8.52;2.40;;;27.20;48.50;;;;;;5054632;28;20385;-69
2023/07/13 06:50:37;;;;;;;8.70;2.10;;;27.10;48.40;;;;;;5054008;28;20048;-69
2023/07/13 06:53:03;;;;;;;9.43;2.58;;;27.00;48.80;;;;;;5053507;28;20089;-70
2023/07/13 06:55:29;;;;;;;6.22;1.90;;;27.00;49.00;;;;;;5038086;28;20075;-70
2023/07/13 06:57:54;;;;;;;5.18;2.13;;;26.90;49.00;;;;;;5054202;28;20075;-70
2023/07/13 07:00:20;;;;;;;7.72;2.35;;;26.80;49.40;;;;;;5054305;28;20037;-70
2023/07/13 07:02:46;;;;;;;8.00;1.77;;;26.90;49.60;;;;;;5054044;28;20127;-70
2023/07/13 07:05:11;;;;;;;6.35;2.03;;;26.90;49.30;;;;;;5037749;28;20041;-70
2023/07/13 07:07:37;;;;;;;6.50;2.25;;;26.90;49.20;;;;;;5037549;28;20047;-70
2023/07/13 07:10:03;;;;;;;6.15;2.20;;;26.90;49.30;;;;;;5021043;28;20159;-70
2023/07/13 07:12:29;;;;;;;6.55;1.98;;;26.90;48.90;;;;;;5056969;28;20044;-70
2023/07/13 07:14:55;;;;;;;7.15;2.40;;;26.90;49.00;;;;;;5058294;28;20139;-70
2023/07/13 07:17:20;;;;;;;6.80;2.30;;;26.80;48.60;;;;;;5076107;28;20043;-70
2023/07/13 07:19:46;;;;;;;6.88;2.30;;;26.70;48.80;;;;;;5057938;28;20049;-71
2023/07/13 07:22:12;;;;;;;4.45;1.80;;;26.60;48.90;;;;;;5058001;28;20127;-70
2023/07/13 07:24:37;;;;;;;6.72;2.17;;;26.50;49.10;;;;;;5057600;28;20438;-70
2023/07/13 07:27:03;;;;;;;8.73;2.85;;;26.40;49.40;;;;;;5040896;28;20044;-71
2023/07/13 07:29:29;;;;;;;6.03;2.13;;;26.20;50.00;;;;;;5057764;28;20543;-71
2023/07/13 07:31:55;;;;;;;6.28;1.85;;;26.20;50.40;;;;;;5040954;28;20166;-71
2023/07/13 07:34:20;;;;;;;6.90;2.40;;;26.00;50.50;;;;;;5057369;28;20160;-71
2023/07/13 07:36:46;;;;;;;7.93;2.60;;;25.90;50.40;;;;;;5057766;28;20047;-71
2023/07/13 07:39:12;;;;;;;8.85;2.38;;;25.80;50.70;;;;;;5057531;28;20036;-71
2023/07/13 07:41:38;;;;;;;6.22;2.30;;;25.70;50.90;;;;;;5057121;28;20037;-71
2023/07/13 07:44:04;;;;;;;7.40;2.03;;;25.60;51.70;;;;;;5057348;28;20115;-71
2023/07/13 07:46:30;;;;;;;8.27;2.42;;;25.50;51.90;;;;;;5057371;28;20054;-71
2023/07/13 07:48:56;;;;;;;8.10;2.30;;;25.60;52.20;;;;;;5040754;28;20048;-71
2023/07/13 07:51:22;;;;;;;10.60;2.38;;;25.60;51.80;;;;;;5057329;28;20184;-70
2023/07/13 07:53:48;;;;;;;11.50;3.75;;;25.60;52.00;;;;;;5057093;28;20052;-70
2023/07/13 07:56:16;;;;;;;7.28;2.83;;;25.50;53.10;;;;;;5057145;28;20086;-70
2023/07/13 07:58:42;;;;;;;9.00;2.85;;;25.40;53.60;;;;;;5056968;28;20040;-70
2023/07/13 08:01:08;;;;;;;9.35;3.33;;;25.40;53.10;;;;;;5057108;28;20033;-70
2023/07/13 08:03:34;;;;;;;10.35;2.95;;;25.30;53.10;;;;;;5057032;28;20048;-70
2023/07/13 08:06:00;;;;;;;9.50;3.20;;;25.10;53.00;;;;;;5057377;28;20094;-70
2023/07/13 08:08:26;;;;;;;7.65;2.13;;;25.00;53.00;;;;;;5075028;28;20476;-70
2023/07/13 08:10:52;;;;;;;7.38;2.28;;;24.80;52.70;;;;;;5056944;28;20055;-70
2023/07/13 08:13:18;;;;;;;6.85;2.35;;;24.60;52.50;;;;;;5057096;28;20071;-70
2023/07/13 08:15:44;;;;;;;6.72;2.55;;;24.30;52.60;;;;;;5040250;28;20072;-69
2023/07/13 08:18:09;;;;;;;6.43;2.50;;;24.20;53.10;;;;;;5056605;28;20073;-70
2023/07/13 08:20:39;;;;;;;7.90;2.58;;;24.00;53.50;;;;;;5056716;28;20048;-70
2023/07/13 08:23:06;;;;;;;5.82;2.15;;;23.80;53.70;;;;;;5039162;28;20361;-70
2023/07/13 08:25:31;;;;;;;5.88;2.28;;;23.60;54.10;;;;;;5056809;28;20132;-70
2023/07/13 08:27:57;;;;;;;7.45;2.60;;;23.50;54.70;;;;;;5056465;28;20491;-69
2023/07/13 08:30:23;;;;;;;6.05;2.25;;;23.40;55.00;;;;;;5056931;28;20044;-69
2023/07/13 08:32:49;;;;;;;5.13;2.15;;;23.20;55.50;;;;;;5056492;28;20383;-69
2023/07/13 08:35:15;;;;;;;5.95;2.67;;;23.10;55.90;;;;;;5056502;28;20050;-69
2023/07/13 08:37:42;;;;;;;6.25;2.58;;;23.00;55.90;;;;;;5056412;28;20048;-70
2023/07/13 08:40:10;;;;;;;4.72;2.28;;;22.90;56.60;;;;;;5040077;28;20365;-70
2023/07/13 08:42:46;;;;;;;5.72;2.42;;;22.80;56.90;;;;;;5056582;28;20037;-70
2023/07/13 08:45:35;;;;;;;6.57;2.40;;;22.60;56.80;;;;;;5056145;28;20068;-70
2023/07/13 08:48:25;;;;;;;7.07;2.67;;;22.60;57.20;;;;;;5039821;28;20423;-70
2023/07/13 08:50:59;;;;;;;6.97;3.10;;;22.40;57.80;;;;;;5055663;28;20044;-70
2023/07/13 08:53:40;;;;;;;6.78;2.55;;;22.30;58.10;;;;;;5056133;28;20036;-70
2023/07/13 08:56:16;;;;;;;7.22;2.67;;;22.20;58.30;;;;;;5056024;28;20712;-70
2023/07/13 08:58:42;;;;;;;5.38;2.50;;;22.10;59.00;;;;;;5056155;28;20037;-71
2023/07/13 09:01:16;;;;;;;6.40;1.88;;;22.00;59.50;;;;;;5023087;28;20064;-71
2023/07/13 09:04:02;;;;;;;5.22;2.35;;;21.90;59.10;;;;;;5055912;28;20044;-70
2023/07/13 09:06:36;;;;;;;5.90;2.15;;;21.80;58.00;;;;;;5055654;28;20040;-70
2023/07/13 09:09:25;;;;;;;7.72;3.50;;;21.60;57.80;;;;;;5056102;28;20143;-70
2023/07/13 09:12:22;;;;;;;4.97;2.17;;;21.40;57.70;;;;;;5042339;28;20048;-70
2023/07/13 09:14:52;;;;;;;4.28;2.03;;;21.10;58.10;;;;;;5055941;28;20527;-70
2023/07/13 09:17:23;;;;;;;4.43;2.65;;;20.80;58.90;;;;;;5055834;28;20131;-70
2023/07/13 09:20:00;;;;;;;4.43;2.38;;;20.70;60.10;;;;;;5039077;28;20484;-70
2023/07/13 09:22:28;;;;;;;4.75;2.40;;;20.60;60.70;;;;;;5038971;28;20072;-70
2023/07/13 09:25:04;;;;;;;4.47;2.40;;;20.50;60.80;;;;;;5055251;28;20047;-70
2023/07/13 09:27:36;;;;;;;7.70;2.35;;;20.40;62.60;;;;;;5055590;28;20052;-70
2023/07/13 09:30:31;;;;;;;5.70;2.83;;;20.40;63.80;;;;;;5055812;28;20036;-70
2023/07/13 09:32:58;;;;;;;3.67;1.77;;;20.40;64.70;;;;;;5025201;28;20131;-70
2023/07/13 09:35:27;;;;;;;3.63;2.00;;;20.50;64.40;;;;;;5055374;28;20056;-70
2023/07/13 09:37:59;;;;;;;3.88;1.95;;;20.50;65.90;;;;;;5073356;28;20040;-70
2023/07/13 09:40:36;;;;;;;2.72;1.80;;;20.70;66.30;;;;;;5055656;28;20039;-70
2023/07/13 09:43:04;;;;;;;2.70;1.60;;;20.90;66.80;;;;;;5054781;28;20392;-70
2023/07/13 09:45:33;;;;;;;4.07;2.00;;;21.20;65.80;;;;;;5055231;28;20569;-70
2023/07/13 09:48:04;;;;;;;4.22;1.70;;;21.40;65.90;;;;;;5047871;28;20111;-70
2023/07/13 09:50:29;;;;;;;4.93;2.05;;;21.60;66.00;;;;;;5049031;28;20040;-70
2023/07/13 09:52:58;;;;;;;4.38;2.40;;;21.90;65.40;;;;;;5038012;28;20036;-70
2023/07/13 09:55:34;;;;;;;4.95;2.00;;;22.10;63.60;;;;;;5055395;28;20080;-70
2023/07/13 09:58:22;;;;;;;4.35;2.03;;;22.30;63.40;;;;;;5054858;28;20434;-70
2023/07/13 10:01:05;;;;;;;4.57;2.45;;;22.60;63.10;;;;;;5052853;28;20048;-70
2023/07/13 10:03:37;;;;;;;5.75;3.25;;;22.80;63.30;;;;;;5054876;28;20064;-70
2023/07/13 10:06:18;;;;;;;5.50;2.88;;;23.00;62.10;;;;;;5055061;28;20042;-70
2023/07/13 10:08:46;;;;;;;5.47;2.10;;;23.30;60.80;;;;;;5053916;28;20047;-70
2023/07/13 10:11:29;;;;;;;6.85;3.00;;;23.50;60.60;;;;;;5047391;28;20106;-70
2023/07/13 10:14:02;;;;;;;6.18;3.25;;;23.70;60.10;;;;;;5037941;28;20573;-70
2023/07/13 10:16:33;;;;;;;6.45;3.80;;;24.00;59.10;;;;;;5054748;28;20102;-70
2023/07/13 10:19:15;;;;;;;4.75;2.25;;;24.10;58.70;;;;;;5054215;28;20047;-70
2023/07/13 10:22:36;;;;;;;7.07;2.50;;;24.30;58.40;;;;;;5054658;28;20557;-70
2023/07/13 10:25:01;;;;;;;5.47;2.13;;;24.60;57.90;;;;;;5034240;28;20080;-70
2023/07/13 10:27:35;;;;;;;5.18;2.05;;;24.80;57.00;;;;;;5054589;28;20083;-70
2023/07/13 10:30:13;;;;;;;;;;;24.90;56.30;;;;;;5054814;28;20094;-70
2023/07/13 10:32:39;;;;;;;4.97;2.03;;;25.10;56.90;;;;;;5054320;28;19966;-70
2023/07/13 10:35:09;;;;;;;5.00;1.80;;;25.20;56.00;;;;;;5054495;28;20115;-70
2023/07/13 10:37:49;;;;;;;6.03;1.90;;;25.40;55.20;;;;;;5054545;28;20036;-70
2023/07/13 10:40:22;;;;;;;3.92;1.70;;;25.50;53.80;;;;;;5035615;28;20048;-70
2023/07/13 10:42:51;;;;;;;3.35;1.60;;;25.50;52.60;;;;;;5067534;28;20403;-70
2023/07/13 10:45:21;;;;;;;4.18;1.27;;;25.60;50.80;;;;;;5054637;28;20040;-70
2023/07/13 10:47:48;;;;;;;4.07;1.17;;;25.60;49.80;;;;;;5060659;28;20029;-70
2023/07/13 10:50:20;;;;;;;2.85;1.20;;;25.50;50.10;;;;;;5060899;28;20044;-70
2023/07/13 10:52:49;;;;;;;3.58;1.45;;;25.50;49.60;;;;;;5054069;28;20107;-70
2023/07/13 10:55:36;;;;;;;3.28;1.35;;;25.40;49.70;;;;;;5058337;28;20492;-70
2023/07/13 10:58:23;;;;;;;4.30;1.48;;;25.30;49.80;;;;;;5061135;28;20049;-70
2023/07/13 11:01:03;;;;;;;2.33;1.00;;;25.20;49.10;;;;;;5059418;28;20047;-70
2023/07/13 11:03:32;;;;;;;5.22;1.92;;;25.10;49.30;;;;;;5060822;28;20054;-70
2023/07/13 11:06:28;;;;;;;5.05;1.48;;;25.00;49.40;;;;;;5060156;28;20361;-70
2023/07/13 11:08:56;;;;;;;6.43;1.88;;;24.80;49.10;;;;;;5033652;28;20109;-70
2023/07/13 11:11:25;;;;;;;5.20;1.95;;;24.70;49.60;;;;;;5044091;28;20177;-70
2023/07/13 11:13:51;;;;;;;4.22;1.70;;;24.60;50.10;;;;;;5060910;28;20127;-70
2023/07/13 11:16:19;;;;;;;4.10;1.70;;;24.60;50.10;;;;;;5044095;28;20246;-69
2023/07/13 11:18:48;;;;;;;4.88;1.77;;;24.60;48.90;;;;;;5060723;28;20051;-70
2023/07/13 11:21:27;;;;;;;4.05;1.55;;;24.50;47.90;;;;;;5060649;28;20032;-70
2023/07/13 11:24:16;;;;;;;5.10;1.63;;;24.40;48.30;;;;;;5060801;28;20044;-71
2023/07/13 11:26:45;;;;;;;4.20;1.80;;;24.30;48.80;;;;;;5076916;28;20078;-69
2023/07/13 11:29:17;;;;;;;3.47;1.70;;;24.30;49.60;;;;;;5060057;28;20408;-71
2023/07/13 11:31:51;;;;;;;4.25;1.67;;;24.30;49.20;;;;;;5060558;28;20036;-70
2023/07/13 11:34:23;;;;;;;5.90;1.83;;;24.30;50.10;;;;;;5054078;28;20065;-70
2023/07/13 11:36:50;;;;;;;4.30;1.40;;;24.40;50.00;;;;;;5045723;28;20087;-69
2023/07/13 11:39:42;;;;;;;4.78;1.83;;;24.50;50.10;;;;;;5029813;28;20499;-70
2023/07/13 11:42:12;;;;;;;4.88;1.88;;;24.60;49.40;;;;;;5042540;28;20477;-70
2023/07/13 11:44:43;;;;;;;4.15;1.42;;;24.60;48.60;;;;;;5046765;28;21062;-70
2023/07/13 11:47:21;;;;;;;5.55;2.10;;;24.60;47.90;;;;;;5046843;28;20036;-70
2023/07/13 11:49:56;;;;;;;4.13;1.92;;;24.60;47.60;;;;;;5011775;28;20114;-71
2023/07/13 11:52:34;;;;;;;3.75;1.92;;;24.60;47.10;;;;;;5046506;28;20068;-71
2023/07/13 11:55:01;;;;;;;4.70;1.50;;;24.50;47.10;;;;;;5044520;28;20091;-71
2023/07/13 11:57:29;;;;;;;2.47;1.70;;;24.40;46.80;;;;;;5043995;28;20071;-71
2023/07/13 11:59:56;;;;;;;6.82;1.60;;;24.40;46.00;;;;;;5025312;28;20033;-71
2023/07/13 12:02:24;;;;;;;3.72;1.48;;;24.30;46.40;;;;;;5029436;28;20033;-70
2023/07/13 12:04:52;;;;;;;5.28;1.70;;;24.30;46.80;;;;;;5041766;28;20047;-70
2023/07/13 12:07:19;;;;;;;4.90;1.48;;;24.30;46.20;;;;;;5044454;28;20041;-70
2023/07/13 12:09:45;;;;;;;2.97;1.17;;;24.30;47.10;;;;;;5025531;28;20393;-70
2023/07/13 12:12:19;;;;;;;3.42;1.35;;;24.30;46.70;;;;;;5040431;28;20063;-71
2023/07/13 12:14:45;;;;;;;;;;;24.30;47.20;;;;;;5028364;28;20056;-70
2023/07/13 12:17:16;;;;;;;3.15;1.23;;;24.40;47.90;;;;;;5042838;28;20352;-70
2023/07/13 12:19:42;;;;;;;4.22;1.45;;;24.40;47.20;;;;;;5044136;28;20055;-71
2023/07/13 12:22:11;;;;;;;3.50;1.17;;;24.50;46.70;;;;;;5049210;28;20029;-71
2023/07/13 12:24:37;;;;;;;4.25;1.83;;;24.60;46.90;;;;;;5040821;28;20427;-70
2023/07/13 12:27:04;;;;;;;3.60;1.38;;;24.70;47.30;;;;;;5038640;28;20082;-70
2023/07/13 12:29:32;;;;;;;4.03;1.40;;;24.80;46.80;;;;;;5038833;28;20056;-71
2023/07/13 12:31:59;;;;;;;3.45;1.10;;;24.80;45.90;;;;;;5037343;28;20049;-70
2023/07/13 12:34:26;;;;;;;6.15;1.35;;;24.80;45.30;;;;;;5039714;28;20124;-71
2023/07/13 12:36:59;;;;;;;3.47;1.27;;;24.80;44.20;;;;;;5035941;28;20049;-71
2023/07/13 12:39:28;;;;;;;2.88;1.20;;;24.80;43.80;;;;;;5040428;28;20047;-70
2023/07/13 12:42:09;;;;;;;3.95;1.10;;;24.80;43.80;;;;;;5040668;28;20029;-70
2023/07/13 12:44:41;;;;;;;5.95;1.10;;;24.70;43.90;;;;;;5039960;28;20124;-70
2023/07/13 12:47:12;;;;;;;2.80;0.90;;;24.80;43.70;;;;;;5038620;28;20140;-69
2023/07/13 12:49:50;;;;;;;4.05;1.10;;;24.70;44.50;;;;;;5042310;28;20043;-70
2023/07/13 12:52:43;;;;;;;4.03;1.20;;;24.80;44.80;;;;;;5038382;28;20044;-70
2023/07/13 12:55:17;;;;;;;5.53;1.25;;;24.80;44.50;;;;;;5038429;28;20064;-70